UKLR/RWN METAR and TAF weather

Enter ICAO airport designator
Station Type Date Time Source
UKLR METAR 2020/06/01 15:00 UTC NOAA

UKLR 011500Z 02007MPS 340V050 9999 FEW021CB BKN022 13/03 Q1013 NOSIG


Station Type Date Time Source
UKLR Decoded METAR 2020/06/01 15:00 UTC NOAA

Rivne, Ukraine (UKLR) 50-35N 026-08E
Jun 01, 2020 - 11:00 AM EDT / 2020.06.01 1500 UTC
Wind: from the NNE (020 degrees) at 16 MPH (14 KT) (direction variable):0
Visibility: greater than 7 mile(s):0
Sky conditions: mostly cloudy
Weather: Cumulonimbus clouds observed
Temperature: 55 F (13 C)
Dew Point: 37 F (3 C)
Relative Humidity: 50%
Pressure (altimeter): 29.91 in. Hg (1013 hPa)
ob: UKLR 011500Z 02007MPS 340V050 9999 FEW021CB BKN022 13/03 Q1013 NOSIG
cycle: 15

Station Type Date Time Source
UKLR TAF 2019/08/16 12:15 UTC NOAA

TAF TAF UKLR 161105Z 1612/1821 35003MPS 9999 BKN020 SCT023CB

Example: see airport list